createdAt,value
2019-01-23T00:01:20.710Z,98342.00
2019-01-23T00:03:50.464Z,98356.00
2019-01-23T00:06:20.234Z,98354.00
2019-01-23T00:08:49.895Z,98355.00
2019-01-23T00:11:19.578Z,98363.00
2019-01-23T00:13:49.240Z,98359.00
2019-01-23T00:16:18.909Z,98360.00
2019-01-23T00:18:48.912Z,98362.00
2019-01-23T00:21:18.594Z,98371.00
2019-01-23T00:23:48.298Z,98371.00
2019-01-23T00:26:18.019Z,98363.00
2019-01-23T00:28:47.629Z,98369.00
2019-01-23T00:31:18.822Z,98367.00
2019-01-23T00:33:48.607Z,98366.00
2019-01-23T00:36:19.615Z,98367.00
2019-01-23T00:38:49.285Z,98370.00
2019-01-23T00:41:18.983Z,98375.00
2019-01-23T00:43:48.722Z,98356.00
2019-01-23T00:46:18.403Z,98344.00
2019-01-23T00:48:48.086Z,98361.00
2019-01-23T00:51:17.747Z,98349.00
2019-01-23T00:53:48.746Z,98354.00
2019-01-23T00:56:18.444Z,98342.00
2019-01-23T00:58:49.221Z,98343.00
2019-01-23T01:01:19.304Z,98351.00
2019-01-23T01:03:49.005Z,98345.00
2019-01-23T01:06:18.700Z,98290.00
2019-01-23T01:08:48.614Z,98347.00
2019-01-23T01:11:18.320Z,98335.00
2019-01-23T01:13:48.108Z,98334.00
2019-01-23T01:16:17.793Z,98334.00
2019-01-23T01:18:47.464Z,98323.00
2019-01-23T01:21:17.126Z,98335.00
2019-01-23T01:23:46.916Z,98334.00
2019-01-23T01:26:16.729Z,98341.00
2019-01-23T01:28:46.390Z,98333.00
2019-01-23T01:31:16.133Z,98329.00
2019-01-23T01:33:45.822Z,98334.00
2019-01-23T01:36:15.488Z,98348.00
2019-01-23T01:38:45.806Z,98349.00
2019-01-23T01:41:15.576Z,98342.00
2019-01-23T01:43:45.316Z,98351.00
2019-01-23T01:46:14.989Z,98352.00
2019-01-23T01:48:44.683Z,98351.00
2019-01-23T01:51:14.353Z,98366.00
2019-01-23T01:53:43.998Z,98361.00
2019-01-23T01:56:13.679Z,98366.00
2019-01-23T01:58:43.356Z,98351.00
2019-01-23T02:01:13.095Z,98353.00
2019-01-23T02:03:42.858Z,98358.00
2019-01-23T02:06:12.528Z,98358.00
2019-01-23T02:08:42.279Z,98360.00
2019-01-23T02:11:11.995Z,98357.00
2019-01-23T02:13:41.632Z,98353.00
2019-01-23T02:16:11.413Z,98347.00
2019-01-23T02:18:41.965Z,98355.00
2019-01-23T02:21:12.565Z,98291.00
2019-01-23T02:23:42.306Z,98360.00
2019-01-23T02:26:12.070Z,98360.00
2019-01-23T02:28:41.728Z,98355.00
2019-01-23T02:31:11.515Z,98359.00
2019-01-23T02:33:41.207Z,98356.00
2019-01-23T02:36:10.854Z,98358.00
2019-01-23T02:38:40.526Z,98357.00
2019-01-23T02:41:10.291Z,98332.00
2019-01-23T02:43:39.965Z,98367.00
2019-01-23T02:46:09.690Z,98368.00
2019-01-23T02:48:39.375Z,98353.00
2019-01-23T02:51:09.133Z,98361.00
2019-01-23T02:53:38.871Z,98359.00
2019-01-23T02:56:08.561Z,98361.00
2019-01-23T02:58:38.284Z,98357.00
2019-01-23T03:01:07.955Z,98373.00
2019-01-23T03:03:37.934Z,98375.00
2019-01-23T03:06:07.614Z,98366.00
2019-01-23T03:08:37.271Z,98372.00
2019-01-23T03:11:07.179Z,98382.00
2019-01-23T03:13:36.846Z,98381.00
2019-01-23T03:16:06.597Z,98382.00
2019-01-23T03:18:36.439Z,98384.00
2019-01-23T03:21:06.448Z,98391.00
2019-01-23T03:23:36.401Z,98387.00
2019-01-23T03:26:06.085Z,98381.00
2019-01-23T03:28:35.754Z,98390.00
2019-01-23T03:31:05.422Z,98389.00
2019-01-23T03:33:35.117Z,98402.00
2019-01-23T03:36:07.517Z,98408.00
2019-01-23T03:38:37.165Z,98428.00
2019-01-23T03:41:06.933Z,98422.00
2019-01-23T03:43:36.905Z,98429.00
2019-01-23T03:46:06.570Z,98436.00
2019-01-23T03:48:36.256Z,98439.00
2019-01-23T03:51:06.218Z,98430.00
2019-01-23T03:53:35.883Z,98440.00
2019-01-23T03:56:06.084Z,98432.00
2019-01-23T03:58:36.238Z,98442.00
2019-01-23T04:01:06.105Z,98430.00
2019-01-23T04:03:36.260Z,98432.00
2019-01-23T04:06:06.412Z,98425.00
2019-01-23T04:08:36.101Z,98422.00
2019-01-23T04:11:06.072Z,98429.00
2019-01-23T04:13:35.742Z,98423.00
2019-01-23T04:16:05.799Z,98426.00
2019-01-23T04:18:36.789Z,98427.00
2019-01-23T04:21:06.690Z,98440.00
2019-01-23T04:23:36.833Z,98437.00
2019-01-23T04:26:06.517Z,98449.00
2019-01-23T04:28:36.199Z,98453.00
2019-01-23T04:31:06.174Z,98455.00
2019-01-23T04:33:35.856Z,98455.00
2019-01-23T04:36:05.910Z,98452.00
2019-01-23T04:38:35.568Z,98448.00
2019-01-23T04:41:05.249Z,98446.00
2019-01-23T04:43:34.920Z,98460.00
2019-01-23T04:46:04.785Z,98465.00
2019-01-23T04:48:34.634Z,98467.00
2019-01-23T04:51:06.176Z,98462.00
2019-01-23T04:53:37.466Z,98473.00
2019-01-23T04:56:07.153Z,98472.00
2019-01-23T04:58:36.819Z,98474.00
2019-01-23T05:01:06.734Z,98474.00
2019-01-23T05:03:36.414Z,98478.00
2019-01-23T05:06:06.928Z,98486.00
2019-01-23T05:08:36.603Z,98488.00
2019-01-23T05:11:06.277Z,98481.00
2019-01-23T05:13:36.037Z,98477.00
2019-01-23T05:16:06.122Z,98479.00
2019-01-23T05:18:35.820Z,98474.00
2019-01-23T05:21:05.883Z,98475.00
2019-01-23T05:23:35.566Z,98478.00
2019-01-23T05:26:05.320Z,98480.00
2019-01-23T05:28:35.186Z,98484.00
2019-01-23T05:31:05.058Z,98477.00
2019-01-23T05:33:34.741Z,98489.00
2019-01-23T05:36:04.402Z,98497.00
2019-01-23T05:38:34.134Z,98495.00
2019-01-23T05:41:03.833Z,98500.00
2019-01-23T05:43:33.504Z,98509.00
2019-01-23T05:46:03.159Z,98511.00
2019-01-23T05:48:32.844Z,98519.00
2019-01-23T05:51:02.623Z,98509.00
2019-01-23T05:53:32.292Z,98523.00
2019-01-23T05:56:01.977Z,98536.00
2019-01-23T05:58:31.706Z,98525.00
2019-01-23T06:01:01.459Z,98540.00
2019-01-23T06:03:32.223Z,98546.00
2019-01-23T06:06:02.358Z,98557.00
2019-01-23T06:08:33.441Z,98555.00
2019-01-23T06:11:03.127Z,98551.00
2019-01-23T06:13:32.795Z,98555.00
2019-01-23T06:16:02.449Z,98557.00
2019-01-23T06:18:32.155Z,98560.00
2019-01-23T06:21:01.834Z,98562.00
2019-01-23T06:23:31.489Z,98564.00
2019-01-23T06:26:01.190Z,98570.00
2019-01-23T06:28:30.857Z,98573.00
2019-01-23T06:31:00.653Z,98574.00
2019-01-23T06:33:31.033Z,98578.00
2019-01-23T06:36:00.780Z,98579.00
2019-01-23T06:38:30.439Z,98586.00
2019-01-23T06:41:00.133Z,98595.00
2019-01-23T06:43:29.808Z,98600.00
2019-01-23T06:45:59.488Z,98610.00
2019-01-23T06:48:29.883Z,98602.00
2019-01-23T06:50:59.523Z,98612.00
2019-01-23T06:53:29.795Z,98605.00
2019-01-23T06:56:00.735Z,98614.00
2019-01-23T06:58:30.403Z,98613.00
2019-01-23T07:01:00.118Z,98619.00
2019-01-23T07:03:29.951Z,98634.00
2019-01-23T07:05:59.687Z,98620.00
2019-01-23T07:08:29.690Z,98618.00
2019-01-23T07:10:59.364Z,98627.00
2019-01-23T07:13:29.034Z,98627.00
2019-01-23T07:15:58.837Z,98627.00
2019-01-23T07:18:28.604Z,98624.00
2019-01-23T07:20:59.243Z,98624.00
2019-01-23T07:23:29.003Z,98623.00
2019-01-23T07:25:58.685Z,98630.00
2019-01-23T07:28:28.394Z,98628.00
2019-01-23T07:30:58.209Z,98639.00
2019-01-23T07:33:27.936Z,98638.00
2019-01-23T07:35:57.600Z,98638.00
2019-01-23T07:38:27.305Z,98649.00
2019-01-23T07:40:56.967Z,98639.00
2019-01-23T07:43:26.758Z,98653.00
2019-01-23T07:45:56.638Z,98659.00
2019-01-23T07:48:26.300Z,98659.00
2019-01-23T07:50:56.024Z,98661.00
2019-01-23T07:53:25.744Z,98655.00
2019-01-23T07:55:55.432Z,98666.00
2019-01-23T07:58:25.095Z,98670.00
2019-01-23T08:00:54.771Z,98673.00
2019-01-23T08:03:24.444Z,98660.00
2019-01-23T08:05:54.101Z,98674.00
2019-01-23T08:08:25.452Z,98669.00
2019-01-23T08:10:55.469Z,98676.00
2019-01-23T08:13:25.123Z,98693.00
2019-01-23T08:15:54.891Z,98692.00
2019-01-23T08:18:24.717Z,98700.00
2019-01-23T08:20:54.327Z,98706.00
2019-01-23T08:23:24.013Z,98707.00
2019-01-23T08:25:53.741Z,98711.00
2019-01-23T08:28:23.395Z,98716.00
2019-01-23T08:30:53.072Z,98736.00
2019-01-23T08:33:22.727Z,98730.00
2019-01-23T08:35:52.388Z,98745.00
2019-01-23T08:38:22.352Z,98755.00
2019-01-23T08:40:52.147Z,98759.00
2019-01-23T08:43:21.806Z,98757.00
2019-01-23T08:45:51.492Z,98781.00
2019-01-23T08:48:22.445Z,98791.00
2019-01-23T08:50:52.114Z,98792.00
2019-01-23T08:53:24.563Z,98793.00
2019-01-23T08:55:54.241Z,98803.00
2019-01-23T08:58:23.904Z,98803.00
2019-01-23T09:00:53.599Z,98815.00
2019-01-23T09:03:23.251Z,98810.00
2019-01-23T09:05:52.904Z,98805.00
2019-01-23T09:08:22.597Z,98811.00
2019-01-23T09:10:52.428Z,98810.00
2019-01-23T09:13:22.095Z,98808.00
2019-01-23T09:15:51.779Z,98813.00
2019-01-23T09:18:21.445Z,98816.00
2019-01-23T09:20:51.134Z,98818.00
2019-01-23T09:23:20.897Z,98822.00
2019-01-23T09:25:51.669Z,98826.00
2019-01-23T09:28:22.809Z,98825.00
2019-01-23T09:30:59.810Z,98833.00
2019-01-23T09:33:42.078Z,98839.00
2019-01-23T09:36:16.209Z,98845.00
2019-01-23T09:39:02.268Z,98846.00
2019-01-23T09:42:03.664Z,98847.00
2019-01-23T09:44:54.539Z,98852.00
2019-01-23T09:47:43.204Z,98850.00
2019-01-23T09:50:29.121Z,98856.00
2019-01-23T09:53:06.229Z,98859.00
2019-01-23T09:55:35.883Z,98870.00
2019-01-23T09:58:05.856Z,98872.00
2019-01-23T10:00:35.556Z,98886.00
2019-01-23T10:03:05.230Z,98885.00
2019-01-23T10:05:34.873Z,98893.00
2019-01-23T10:08:05.061Z,98894.00
2019-01-23T10:10:34.947Z,98895.00
2019-01-23T10:13:04.625Z,98907.00
2019-01-23T10:15:41.622Z,98907.00
2019-01-23T10:18:11.778Z,98916.00
2019-01-23T10:20:41.487Z,98921.00
2019-01-23T10:23:11.215Z,98913.00
2019-01-23T10:25:40.917Z,98917.00
2019-01-23T10:28:10.591Z,98909.00
2019-01-23T10:30:40.283Z,98911.00
2019-01-23T10:33:09.939Z,98917.00
2019-01-23T10:35:39.600Z,98920.00
2019-01-23T10:38:09.309Z,98910.00
2019-01-23T10:40:38.984Z,98933.00
2019-01-23T10:43:08.634Z,98919.00
2019-01-23T10:45:38.334Z,98926.00
2019-01-23T10:48:08.004Z,98940.00
2019-01-23T10:50:37.654Z,98937.00
2019-01-23T10:53:07.412Z,98927.00
2019-01-23T10:55:37.103Z,98934.00
2019-01-23T10:58:06.761Z,98929.00
2019-01-23T11:00:37.957Z,98940.00
2019-01-23T11:03:10.083Z,98944.00
2019-01-23T11:05:39.509Z,98937.00
2019-01-23T11:08:09.315Z,98935.00
2019-01-23T11:10:39.024Z,98937.00
2019-01-23T11:13:10.379Z,98947.00
2019-01-23T11:15:40.080Z,98946.00
2019-01-23T11:18:09.801Z,98947.00
2019-01-23T11:20:39.453Z,98943.00
2019-01-23T11:23:09.406Z,98946.00
2019-01-23T11:25:39.090Z,98948.00
2019-01-23T11:28:08.749Z,98933.00
2019-01-23T11:30:38.433Z,98947.00
2019-01-23T11:33:08.126Z,98951.00
2019-01-23T11:35:38.177Z,98957.00
2019-01-23T11:38:07.870Z,98961.00
2019-01-23T11:40:37.535Z,98959.00
2019-01-23T11:43:07.402Z,98966.00
2019-01-23T11:45:37.106Z,98965.00
2019-01-23T11:48:07.066Z,98963.00
2019-01-23T11:50:36.740Z,98962.00
2019-01-23T11:53:07.544Z,98971.00
2019-01-23T11:55:38.691Z,98963.00
2019-01-23T11:58:08.363Z,98966.00
2019-01-23T12:00:38.199Z,98973.00
2019-01-23T12:03:07.869Z,98991.00
2019-01-23T12:05:37.522Z,98985.00
2019-01-23T12:08:07.298Z,98977.00
2019-01-23T12:10:36.963Z,98985.00
2019-01-23T12:13:06.629Z,98989.00
2019-01-23T12:15:40.804Z,98983.00
2019-01-23T12:18:07.798Z,98987.00
2019-01-23T12:20:37.757Z,98987.00
2019-01-23T12:23:07.477Z,98987.00
2019-01-23T12:25:37.518Z,98991.00
2019-01-23T12:28:07.935Z,98993.00
2019-01-23T12:30:37.976Z,98999.00
2019-01-23T12:33:07.640Z,98998.00
2019-01-23T12:35:37.297Z,98996.00
2019-01-23T12:38:07.999Z,98999.00
2019-01-23T12:40:37.671Z,98998.00
2019-01-23T12:43:07.383Z,99001.00
2019-01-23T12:45:37.138Z,99001.00
2019-01-23T12:48:06.800Z,99005.00
2019-01-23T12:50:36.527Z,99003.00
2019-01-23T12:53:06.411Z,99003.00
2019-01-23T12:55:37.550Z,99010.00
2019-01-23T12:58:07.295Z,98993.00
2019-01-23T13:00:37.382Z,98988.00
2019-01-23T13:03:07.142Z,98991.00
2019-01-23T13:05:36.811Z,98993.00
2019-01-23T13:08:07.827Z,98983.00
2019-01-23T13:10:37.476Z,98991.00
2019-01-23T13:13:07.127Z,98995.00
2019-01-23T13:15:36.823Z,99012.00
2019-01-23T13:18:06.487Z,99009.00
2019-01-23T13:20:36.160Z,99003.00
2019-01-23T13:23:06.997Z,99000.00
2019-01-23T13:25:36.665Z,98995.00
2019-01-23T13:28:06.725Z,99003.00
2019-01-23T13:30:36.418Z,99012.00
2019-01-23T13:33:06.176Z,99007.00
2019-01-23T13:35:38.650Z,99006.00
2019-01-23T13:38:12.569Z,99005.00
2019-01-23T13:40:42.636Z,99015.00
2019-01-23T13:43:12.302Z,99020.00
2019-01-23T13:45:41.985Z,99015.00
2019-01-23T13:48:11.865Z,99022.00
2019-01-23T13:50:41.599Z,99032.00
2019-01-23T13:53:12.531Z,99024.00
2019-01-23T13:55:42.205Z,99026.00
2019-01-23T13:58:11.926Z,99030.00
2019-01-23T14:00:43.111Z,99028.00
2019-01-23T14:03:12.976Z,99038.00
2019-01-23T14:05:42.654Z,99035.00
2019-01-23T14:08:14.360Z,99047.00
2019-01-23T14:10:43.989Z,99051.00
2019-01-23T14:13:13.752Z,99042.00
2019-01-23T14:15:43.529Z,99050.00
2019-01-23T14:18:13.405Z,99057.00
2019-01-23T14:20:43.083Z,99059.00
2019-01-23T14:23:12.776Z,99060.00
2019-01-23T14:25:42.461Z,99063.00
2019-01-23T14:28:12.384Z,99066.00
2019-01-23T14:30:44.466Z,99059.00
2019-01-23T14:33:14.124Z,99069.00
2019-01-23T14:35:43.800Z,99066.00
2019-01-23T14:38:13.572Z,99066.00
2019-01-23T14:40:43.344Z,99064.00
2019-01-23T14:43:13.005Z,99057.00
2019-01-23T14:45:43.042Z,99060.00
2019-01-23T14:48:12.704Z,99057.00
2019-01-23T14:50:42.388Z,99066.00
2019-01-23T14:53:12.255Z,99072.00
2019-01-23T14:55:42.138Z,99073.00
2019-01-23T14:58:12.078Z,99083.00
2019-01-23T15:00:41.766Z,99085.00
2019-01-23T15:03:11.421Z,99085.00
2019-01-23T15:05:41.112Z,99095.00
2019-01-23T15:08:10.787Z,99098.00
2019-01-23T15:10:40.496Z,99095.00
2019-01-23T15:13:10.165Z,99090.00
2019-01-23T15:15:39.949Z,99097.00
2019-01-23T15:18:09.600Z,99096.00
2019-01-23T15:20:40.280Z,99099.00
2019-01-23T15:23:10.001Z,99098.00
2019-01-23T15:25:39.639Z,99111.00
2019-01-23T15:28:09.600Z,99118.00
2019-01-23T15:30:39.300Z,99124.00
2019-01-23T15:33:08.975Z,99120.00
2019-01-23T15:35:38.646Z,99123.00
2019-01-23T15:38:08.338Z,99110.00
2019-01-23T15:40:38.709Z,99120.00
2019-01-23T15:43:08.463Z,99120.00
2019-01-23T15:45:38.151Z,99124.00
2019-01-23T15:48:07.898Z,99131.00
2019-01-23T15:50:37.591Z,99156.00
2019-01-23T15:53:07.380Z,99144.00
2019-01-23T15:55:37.050Z,99165.00
2019-01-23T15:58:07.052Z,99172.00
2019-01-23T16:00:36.779Z,99154.00
2019-01-23T16:03:06.587Z,99170.00
2019-01-23T16:05:36.252Z,99180.00
2019-01-23T16:08:06.313Z,99180.00
2019-01-23T16:10:35.972Z,99182.00
2019-01-23T16:13:06.097Z,99184.00
2019-01-23T16:15:35.793Z,99186.00
2019-01-23T16:18:05.547Z,99188.00
2019-01-23T16:20:36.694Z,99193.00
2019-01-23T16:23:06.769Z,99197.00
2019-01-23T16:25:36.493Z,99206.00
2019-01-23T16:28:06.172Z,99209.00
2019-01-23T16:30:38.325Z,99193.00
2019-01-23T16:33:07.970Z,99194.00
2019-01-23T16:35:38.747Z,99199.00
2019-01-23T16:38:09.801Z,99199.00
2019-01-23T16:40:39.662Z,99197.00
2019-01-23T16:43:09.380Z,99208.00
2019-01-23T16:45:39.073Z,99205.00
2019-01-23T16:48:08.733Z,99206.00
2019-01-23T16:50:38.450Z,99203.00
2019-01-23T16:53:08.235Z,99210.00
2019-01-23T16:55:37.906Z,99215.00
2019-01-23T16:58:09.472Z,99221.00
2019-01-23T17:00:39.755Z,99224.00
2019-01-23T17:03:10.401Z,99232.00
2019-01-23T17:05:40.145Z,99232.00
2019-01-23T17:08:10.932Z,99225.00
2019-01-23T17:10:40.616Z,99235.00
2019-01-23T17:13:10.426Z,99241.00
2019-01-23T17:15:40.100Z,99236.00
2019-01-23T17:18:09.836Z,99242.00
2019-01-23T17:20:43.612Z,99235.00
2019-01-23T17:23:13.374Z,99250.00
2019-01-23T17:25:44.134Z,99244.00
2019-01-23T17:28:15.308Z,99250.00
2019-01-23T17:30:45.106Z,99250.00
2019-01-23T17:33:14.758Z,99252.00
2019-01-23T17:35:44.720Z,99241.00
2019-01-23T17:38:14.414Z,99253.00
2019-01-23T17:40:44.097Z,99255.00
2019-01-23T17:43:14.722Z,99264.00
2019-01-23T17:45:45.303Z,99271.00
2019-01-23T17:48:15.364Z,99272.00
2019-01-23T17:50:45.253Z,99276.00
2019-01-23T17:53:14.939Z,99271.00
2019-01-23T17:55:44.592Z,99271.00
2019-01-23T17:58:14.268Z,99275.00
2019-01-23T18:00:51.725Z,99276.00
2019-01-23T18:03:21.505Z,99275.00
2019-01-23T18:05:51.409Z,99285.00
2019-01-23T18:08:21.109Z,99284.00
2019-01-23T18:10:50.787Z,99287.00
2019-01-23T18:13:20.440Z,99283.00
2019-01-23T18:15:51.779Z,99280.00
2019-01-23T18:18:21.522Z,99276.00
2019-01-23T18:20:51.188Z,99283.00
2019-01-23T18:23:20.934Z,99289.00
2019-01-23T18:25:50.885Z,99276.00
2019-01-23T18:28:20.785Z,99273.00
2019-01-23T18:30:57.645Z,99281.00
2019-01-23T18:33:46.653Z,99278.00
2019-01-23T18:36:35.687Z,99281.00
2019-01-23T18:39:21.812Z,99280.00
2019-01-23T18:42:01.997Z,99265.00
2019-01-23T18:44:53.769Z,99276.00
2019-01-23T18:47:33.631Z,99270.00
2019-01-23T18:50:31.415Z,99274.00
2019-01-23T18:53:01.152Z,99270.00
2019-01-23T18:55:31.033Z,99278.00
2019-01-23T18:58:00.916Z,99280.00
2019-01-23T19:00:31.075Z,99284.00
2019-01-23T19:03:06.919Z,99219.00
2019-01-23T19:05:32.537Z,99289.00
2019-01-23T19:08:02.231Z,99283.00
2019-01-23T19:10:31.921Z,99294.00
2019-01-23T19:13:01.579Z,99289.00
2019-01-23T19:15:31.567Z,99284.00
2019-01-23T19:18:02.393Z,99277.00
2019-01-23T19:20:32.128Z,99276.00
2019-01-23T19:23:01.818Z,99276.00
2019-01-23T19:25:31.488Z,99288.00
2019-01-23T19:28:01.144Z,99286.00
2019-01-23T19:30:30.857Z,99282.00
2019-01-23T19:33:00.923Z,99286.00
2019-01-23T19:35:30.632Z,99280.00
2019-01-23T19:38:00.384Z,99276.00
2019-01-23T19:40:30.075Z,99283.00
2019-01-23T19:42:59.822Z,99277.00
2019-01-23T19:45:29.530Z,99277.00
2019-01-23T19:47:59.193Z,99278.00
2019-01-23T19:50:29.075Z,99283.00
2019-01-23T19:52:58.826Z,99289.00
2019-01-23T19:55:28.501Z,99297.00
2019-01-23T19:57:58.168Z,99287.00
2019-01-23T20:00:28.338Z,99307.00
2019-01-23T20:02:58.015Z,99310.00
2019-01-23T20:05:27.675Z,99323.00
2019-01-23T20:07:57.364Z,99320.00
2019-01-23T20:10:27.042Z,99319.00
2019-01-23T20:12:56.685Z,99324.00
2019-01-23T20:15:26.478Z,99326.00
2019-01-23T20:17:57.253Z,99328.00
2019-01-23T20:20:27.197Z,99328.00
2019-01-23T20:22:56.909Z,99330.00
2019-01-23T20:25:28.903Z,99331.00
2019-01-23T20:27:58.706Z,99328.00
2019-01-23T20:30:35.264Z,99326.00
2019-01-23T20:33:05.632Z,99321.00
2019-01-23T20:35:35.288Z,99317.00
2019-01-23T20:38:05.800Z,99327.00
2019-01-23T20:40:35.533Z,99328.00
2019-01-23T20:43:06.432Z,99332.00
2019-01-23T20:45:36.235Z,99336.00
2019-01-23T20:48:07.673Z,99341.00
2019-01-23T20:50:37.341Z,99341.00
2019-01-23T20:53:07.351Z,99340.00
2019-01-23T20:55:37.029Z,99343.00
2019-01-23T20:58:08.452Z,99337.00
2019-01-23T21:00:39.407Z,99354.00
2019-01-23T21:03:09.164Z,99351.00
2019-01-23T21:05:38.839Z,99355.00
2019-01-23T21:08:08.767Z,99338.00
2019-01-23T21:10:38.420Z,99356.00
2019-01-23T21:13:08.072Z,99353.00
2019-01-23T21:15:38.031Z,99351.00
2019-01-23T21:18:09.119Z,99354.00
2019-01-23T21:20:38.998Z,99352.00
2019-01-23T21:23:10.704Z,99358.00
2019-01-23T21:25:41.186Z,99368.00
2019-01-23T21:28:10.848Z,99362.00
2019-01-23T21:30:40.542Z,99368.00
2019-01-23T21:33:10.208Z,99363.00
2019-01-23T21:35:39.990Z,99373.00
2019-01-23T21:38:09.671Z,99374.00
2019-01-23T21:40:39.334Z,99373.00
2019-01-23T21:43:09.066Z,99371.00
2019-01-23T21:45:38.766Z,99388.00
2019-01-23T21:48:08.430Z,99383.00
2019-01-23T21:50:38.104Z,99385.00
2019-01-23T21:53:07.799Z,99388.00
2019-01-23T21:55:37.590Z,99380.00
2019-01-23T21:58:07.261Z,99382.00
2019-01-23T22:00:44.532Z,99384.00
2019-01-23T22:03:14.192Z,99393.00
2019-01-23T22:05:44.037Z,99389.00
2019-01-23T22:08:15.458Z,99397.00
2019-01-23T22:10:45.442Z,99387.00
2019-01-23T22:13:15.227Z,99390.00
2019-01-23T22:15:44.912Z,99399.00
2019-01-23T22:18:14.646Z,99388.00
2019-01-23T22:20:44.312Z,99405.00
2019-01-23T22:23:14.024Z,99403.00
2019-01-23T22:25:44.710Z,99405.00
2019-01-23T22:28:14.371Z,99410.00
2019-01-23T22:30:44.073Z,99409.00
2019-01-23T22:33:13.950Z,99413.00
2019-01-23T22:35:43.620Z,99408.00
2019-01-23T22:38:13.397Z,99409.00
2019-01-23T22:40:43.094Z,99415.00
2019-01-23T22:43:15.121Z,99412.00
2019-01-23T22:45:44.156Z,99420.00
2019-01-23T22:48:13.815Z,99424.00
2019-01-23T22:50:44.593Z,99418.00
2019-01-23T22:53:14.350Z,99425.00
2019-01-23T22:55:44.108Z,99420.00
2019-01-23T22:58:13.951Z,99429.00
2019-01-23T23:01:00.373Z,99426.00
2019-01-23T23:03:30.128Z,99425.00
2019-01-23T23:05:59.770Z,99423.00
2019-01-23T23:08:29.466Z,99428.00
2019-01-23T23:10:59.262Z,99419.00
2019-01-23T23:13:29.128Z,99423.00
2019-01-23T23:15:58.943Z,99421.00
2019-01-23T23:18:28.596Z,99426.00
2019-01-23T23:20:59.809Z,99419.00
2019-01-23T23:23:29.512Z,99426.00
2019-01-23T23:25:59.184Z,99429.00
2019-01-23T23:28:28.848Z,99433.00
2019-01-23T23:30:58.637Z,99428.00
2019-01-23T23:33:28.694Z,99429.00
2019-01-23T23:35:58.606Z,99427.00
2019-01-23T23:38:28.306Z,99434.00
2019-01-23T23:40:58.322Z,99444.00
2019-01-23T23:43:27.990Z,99455.00
2019-01-23T23:45:57.689Z,99466.00
2019-01-23T23:48:27.346Z,99466.00
2019-01-23T23:50:57.010Z,99463.00
2019-01-23T23:53:26.693Z,99467.00
2019-01-23T23:55:56.354Z,99471.00
2019-01-23T23:58:26.013Z,99398.00
